createdAt,value
2024-04-15T00:00:15.392Z,11.76
2024-04-15T00:03:20.751Z,11.71
2024-04-15T00:06:23.423Z,11.77
2024-04-15T00:09:26.388Z,11.78
2024-04-15T00:12:28.866Z,11.84
2024-04-15T00:15:31.397Z,11.87
2024-04-15T00:18:33.925Z,11.78
2024-04-15T00:21:36.519Z,11.71
2024-04-15T00:24:39.024Z,11.68
2024-04-15T00:27:41.701Z,11.75
2024-04-15T00:30:48.435Z,11.81
2024-04-15T00:33:50.952Z,12.03
2024-04-15T00:36:53.514Z,11.97
2024-04-15T00:39:56.946Z,11.98
2024-04-15T00:42:59.552Z,12.07
2024-04-15T00:46:02.359Z,11.88
2024-04-15T00:49:05.475Z,11.80
2024-04-15T00:52:09.140Z,11.71
2024-04-15T00:55:12.058Z,11.70
2024-04-15T00:58:17.742Z,11.65
2024-04-15T01:01:21.729Z,11.62
2024-04-15T01:04:24.543Z,11.66
2024-04-15T01:07:27.581Z,11.66
2024-04-15T01:10:33.178Z,11.62
2024-04-15T01:13:41.835Z,11.61
2024-04-15T01:16:44.471Z,11.63
2024-04-15T01:19:46.955Z,11.69
2024-04-15T01:22:57.244Z,11.71
2024-04-15T01:26:00.096Z,11.94
2024-04-15T01:29:02.565Z,11.78
2024-04-15T01:32:05.378Z,11.80
2024-04-15T01:35:07.951Z,11.87
2024-04-15T01:38:10.426Z,11.94
2024-04-15T01:41:12.920Z,11.95
2024-04-15T01:44:15.372Z,11.81
2024-04-15T01:47:17.899Z,11.75
2024-04-15T01:50:22.659Z,11.71
2024-04-15T01:53:25.159Z,11.74
2024-04-15T01:56:27.720Z,11.94
2024-04-15T01:59:30.256Z,11.79
2024-04-15T02:02:33.909Z,11.78
2024-04-15T02:05:36.653Z,11.66
2024-04-15T02:08:39.118Z,11.64
2024-04-15T02:11:41.572Z,11.71
2024-04-15T02:14:44.679Z,11.69
2024-04-15T02:17:47.182Z,11.72
2024-04-15T02:20:50.233Z,11.78
2024-04-15T02:23:52.908Z,11.72
2024-04-15T02:26:56.207Z,11.67
2024-04-15T02:29:58.693Z,11.69
2024-04-15T02:33:01.382Z,11.71
2024-04-15T02:36:04.158Z,11.70
2024-04-15T02:39:06.619Z,11.65
2024-04-15T02:42:09.282Z,11.61
2024-04-15T02:45:12.920Z,11.65
2024-04-15T02:48:18.353Z,11.65
2024-04-15T02:51:20.987Z,11.65
2024-04-15T02:54:23.486Z,11.68
2024-04-15T02:57:25.958Z,11.66
2024-04-15T03:00:28.532Z,11.55
2024-04-15T03:03:31.066Z,11.58
2024-04-15T03:06:33.654Z,11.63
2024-04-15T03:09:36.190Z,11.48
2024-04-15T03:12:38.644Z,11.65
2024-04-15T03:15:41.166Z,11.66
2024-04-15T03:18:46.242Z,11.68
2024-04-15T03:21:50.331Z,11.68
2024-04-15T03:24:52.822Z,11.65
2024-04-15T03:27:55.495Z,11.68
2024-04-15T03:30:58.041Z,11.68
2024-04-15T03:34:00.629Z,11.79
2024-04-15T03:37:03.178Z,11.83
2024-04-15T03:40:08.877Z,11.81
2024-04-15T03:43:11.263Z,11.79
2024-04-15T03:46:13.874Z,11.79
2024-04-15T03:49:16.506Z,11.97
2024-04-15T03:52:19.121Z,11.82
2024-04-15T03:55:21.676Z,11.83
2024-04-15T03:58:24.394Z,11.80
2024-04-15T04:01:26.949Z,11.85
2024-04-15T04:04:32.800Z,11.99
2024-04-15T04:07:35.682Z,11.85
2024-04-15T04:10:38.223Z,11.90
2024-04-15T04:13:40.714Z,11.91
2024-04-15T04:16:45.593Z,11.86
2024-04-15T04:19:48.027Z,11.99
2024-04-15T04:22:50.567Z,12.03
2024-04-15T04:25:53.064Z,12.03
2024-04-15T04:28:55.712Z,12.13
2024-04-15T04:31:58.193Z,12.12
2024-04-15T04:35:00.721Z,12.16
2024-04-15T04:38:03.259Z,12.19
2024-04-15T04:41:05.763Z,12.15
2024-04-15T04:44:08.260Z,12.11
2024-04-15T04:47:10.973Z,12.28
2024-04-15T04:50:13.527Z,12.29
2024-04-15T04:53:16.388Z,12.37
2024-04-15T04:56:18.974Z,12.30
2024-04-15T04:59:21.581Z,12.42
2024-04-15T05:02:26.585Z,12.52
2024-04-15T05:05:29.151Z,12.56
2024-04-15T05:08:31.617Z,12.68
2024-04-15T05:11:34.198Z,12.70
2024-04-15T05:14:36.644Z,12.75
2024-04-15T05:17:39.175Z,12.95
2024-04-15T05:20:41.840Z,13.12
2024-04-15T05:23:45.099Z,13.05
2024-04-15T05:26:47.521Z,13.37
2024-04-15T05:29:49.997Z,13.33
2024-04-15T05:32:52.472Z,13.57
2024-04-15T05:35:55.041Z,13.53
2024-04-15T05:38:57.501Z,13.55
2024-04-15T05:42:00.170Z,13.67
2024-04-15T05:45:02.779Z,13.92
2024-04-15T05:48:06.228Z,14.11
2024-04-15T05:51:08.819Z,14.27
2024-04-15T05:54:11.389Z,14.19
2024-04-15T05:57:13.870Z,14.20
2024-04-15T06:00:17.057Z,14.27
2024-04-15T06:03:19.521Z,14.44
2024-04-15T06:06:22.078Z,14.48
2024-04-15T06:09:24.544Z,14.64
2024-04-15T06:12:30.531Z,14.84
2024-04-15T06:15:39.023Z,14.80
2024-04-15T06:18:41.769Z,14.86
2024-04-15T06:21:44.782Z,15.01
2024-04-15T06:24:47.857Z,15.09
2024-04-15T06:27:50.356Z,15.25
2024-04-15T06:30:52.809Z,15.41
2024-04-15T06:33:55.520Z,15.44
2024-04-15T06:36:59.002Z,15.58
2024-04-15T06:40:01.496Z,15.78
2024-04-15T06:43:07.492Z,15.80
2024-04-15T06:46:10.504Z,15.76
2024-04-15T06:49:13.019Z,15.84
2024-04-15T06:52:15.531Z,15.88
2024-04-15T06:55:18.131Z,15.90
2024-04-15T06:58:20.727Z,15.94
2024-04-15T07:01:23.693Z,15.98
2024-04-15T07:04:26.395Z,16.06
2024-04-15T07:07:29.010Z,16.14
2024-04-15T07:10:33.467Z,16.18
2024-04-15T07:13:35.972Z,16.36
2024-04-15T07:16:38.514Z,16.51
2024-04-15T07:19:41.088Z,16.66
2024-04-15T07:22:45.847Z,16.81
2024-04-15T07:25:48.265Z,16.95
2024-04-15T07:28:53.719Z,17.31
2024-04-15T07:31:56.288Z,17.56
2024-04-15T07:34:58.743Z,17.78
2024-04-15T07:38:01.451Z,18.03
2024-04-15T07:41:04.103Z,18.15
2024-04-15T07:44:06.600Z,18.15
2024-04-15T07:47:09.110Z,19.59
2024-04-15T07:50:11.705Z,19.59
2024-04-15T07:53:14.192Z,19.41
2024-04-15T07:56:16.787Z,19.74
2024-04-15T07:59:19.307Z,20.14
2024-04-15T08:02:21.935Z,20.05
2024-04-15T08:05:24.497Z,20.01
2024-04-15T08:08:26.992Z,19.69
2024-04-15T08:11:29.467Z,20.25
2024-04-15T08:14:31.946Z,20.63
2024-04-15T08:17:34.523Z,20.70
2024-04-15T08:20:37.096Z,20.83
2024-04-15T08:23:39.666Z,20.70
2024-04-15T08:26:42.370Z,20.61
2024-04-15T08:29:44.948Z,20.86
2024-04-15T08:32:47.774Z,21.02
2024-04-15T08:35:50.384Z,20.93
2024-04-15T08:38:52.811Z,20.88
2024-04-15T08:42:12.134Z,20.78
2024-04-15T08:45:20.257Z,20.54
2024-04-15T08:48:26.568Z,20.48
2024-04-15T08:51:29.086Z,20.46
2024-04-15T08:54:31.578Z,20.54
2024-04-15T08:57:34.684Z,20.60
2024-04-15T09:00:37.426Z,20.51
2024-04-15T09:03:39.960Z,20.35
2024-04-15T09:06:42.407Z,20.28
2024-04-15T09:09:45.311Z,20.11
2024-04-15T09:12:49.756Z,20.20
2024-04-15T09:15:53.025Z,19.81
2024-04-15T09:18:55.742Z,19.78
2024-04-15T09:22:04.625Z,19.99
2024-04-15T09:25:07.946Z,19.95
2024-04-15T09:28:10.451Z,20.08
2024-04-15T09:31:13.093Z,19.93
2024-04-15T09:34:17.162Z,20.01
2024-04-15T09:37:35.798Z,20.07
2024-04-15T09:40:43.148Z,20.00
2024-04-15T09:43:47.359Z,20.01
2024-04-15T09:46:50.823Z,20.00
2024-04-15T09:49:53.422Z,19.95
2024-04-15T09:53:01.250Z,19.95
2024-04-15T09:56:09.538Z,19.92
2024-04-15T09:59:15.597Z,19.92
2024-04-15T10:02:28.978Z,19.84
2024-04-15T10:05:34.343Z,19.98
2024-04-15T10:08:39.331Z,19.82
2024-04-15T10:11:44.448Z,19.75
2024-04-15T10:14:47.589Z,19.24
2024-04-15T10:18:20.216Z,19.36
2024-04-15T10:21:23.316Z,19.32
2024-04-15T10:24:27.437Z,19.38
2024-04-15T10:27:29.855Z,19.43
2024-04-15T10:30:34.052Z,19.53
2024-04-15T10:33:50.876Z,19.46
2024-04-15T10:36:57.745Z,19.23
2024-04-15T10:40:05.032Z,19.32
2024-04-15T10:43:08.028Z,19.24
2024-04-15T10:46:14.408Z,19.30
2024-04-15T10:49:18.222Z,19.36
2024-04-15T10:52:21.953Z,19.52
2024-04-15T10:55:24.635Z,19.66
2024-04-15T10:58:27.434Z,19.47
2024-04-15T11:01:30.366Z,19.65
2024-04-15T11:04:33.831Z,19.76
2024-04-15T11:07:39.162Z,19.88
2024-04-15T11:10:41.954Z,20.00
2024-04-15T11:13:44.651Z,19.94
2024-04-15T11:16:48.841Z,19.86
2024-04-15T11:20:06.745Z,20.21
2024-04-15T11:23:10.180Z,20.00
2024-04-15T11:26:15.887Z,20.24
2024-04-15T11:29:19.738Z,20.41
2024-04-15T11:32:22.405Z,20.30
2024-04-15T11:35:26.710Z,20.05
2024-04-15T11:38:29.459Z,20.05
2024-04-15T11:41:31.998Z,19.81
2024-04-15T11:44:37.060Z,19.74
2024-04-15T11:47:39.693Z,19.75
2024-04-15T11:50:44.433Z,19.51
2024-04-15T11:53:49.624Z,19.59
2024-04-15T11:56:52.205Z,19.65
2024-04-15T11:59:59.266Z,19.72
2024-04-15T12:03:01.732Z,19.50
2024-04-15T12:06:06.943Z,19.57
2024-04-15T12:09:09.761Z,19.45
2024-04-15T12:12:12.272Z,19.38
2024-04-15T12:15:15.487Z,19.22
2024-04-15T12:18:18.348Z,18.98
2024-04-15T12:21:21.034Z,19.00
2024-04-15T12:24:24.155Z,19.00
2024-04-15T12:27:28.794Z,19.11
2024-04-15T12:30:33.116Z,19.11
2024-04-15T12:33:35.688Z,18.97
2024-04-15T12:36:38.269Z,19.00
2024-04-15T12:39:41.936Z,19.13
2024-04-15T12:42:44.387Z,18.88
2024-04-15T12:45:46.872Z,18.61
2024-04-15T12:48:49.530Z,18.44
2024-04-15T12:51:52.173Z,18.10
2024-04-15T12:54:54.744Z,18.13
2024-04-15T12:57:57.301Z,17.99
2024-04-15T13:01:00.634Z,17.89
2024-04-15T13:04:05.473Z,17.89
2024-04-15T13:07:08.691Z,17.69
2024-04-15T13:10:11.404Z,17.61
2024-04-15T13:13:13.988Z,17.51
2024-04-15T13:16:16.760Z,17.36
2024-04-15T13:19:19.393Z,17.42
2024-04-15T13:22:22.153Z,17.30
2024-04-15T13:25:24.831Z,17.27
2024-04-15T13:28:27.502Z,17.12
2024-04-15T13:31:30.034Z,16.92
2024-04-15T13:34:33.073Z,16.87
2024-04-15T13:37:35.786Z,16.85
2024-04-15T13:40:38.321Z,16.64
2024-04-15T13:43:40.862Z,16.48
2024-04-15T13:46:43.562Z,16.30
2024-04-15T13:49:46.058Z,16.14
2024-04-15T13:52:48.546Z,15.90
2024-04-15T13:55:51.436Z,15.56
2024-04-15T13:58:54.312Z,15.32
2024-04-15T14:01:58.115Z,14.95
2024-04-15T14:05:01.052Z,14.95
2024-04-15T14:08:03.764Z,14.51
2024-04-15T14:11:06.608Z,14.54
2024-04-15T14:14:09.089Z,14.13
2024-04-15T14:17:13.808Z,14.03
2024-04-15T14:20:16.375Z,13.89
2024-04-15T14:23:19.066Z,13.86
2024-04-15T14:26:22.614Z,13.83
2024-04-15T14:29:26.487Z,13.67
2024-04-15T14:32:29.558Z,13.61
2024-04-15T14:35:32.712Z,13.64
2024-04-15T14:38:35.254Z,13.66
2024-04-15T14:41:37.761Z,13.63
2024-04-15T14:44:40.311Z,13.50
2024-04-15T14:47:43.505Z,13.53
2024-04-15T14:50:46.188Z,13.54
2024-04-15T14:53:48.949Z,13.66
2024-04-15T14:56:51.713Z,13.57
2024-04-15T14:59:54.516Z,13.53
2024-04-15T15:02:57.071Z,13.48
2024-04-15T15:06:00.189Z,13.47
2024-04-15T15:09:02.834Z,13.43
2024-04-15T15:12:05.733Z,13.31
2024-04-15T15:15:08.422Z,13.36
2024-04-15T15:18:11.119Z,13.35
2024-04-15T15:21:23.227Z,13.36
2024-04-15T15:24:29.614Z,13.30
2024-04-15T15:27:32.256Z,13.26
2024-04-15T15:30:34.747Z,13.22
2024-04-15T15:33:37.288Z,13.17
2024-04-15T15:36:39.966Z,13.33
2024-04-15T15:39:42.610Z,13.29
2024-04-15T15:42:46.382Z,13.22
2024-04-15T15:45:50.253Z,13.20
2024-04-15T15:48:53.503Z,13.15
2024-04-15T15:52:06.147Z,13.11
2024-04-15T15:55:11.211Z,13.11
2024-04-15T15:58:13.983Z,13.11
2024-04-15T16:01:16.598Z,13.08
2024-04-15T16:04:19.345Z,13.06
2024-04-15T16:07:21.938Z,13.11
2024-04-15T16:10:25.202Z,13.27
2024-04-15T16:13:27.966Z,13.17
2024-04-15T16:16:30.678Z,13.08
2024-04-15T16:19:33.263Z,13.06
2024-04-15T16:22:35.763Z,13.09
2024-04-15T16:25:38.313Z,13.26
2024-04-15T16:28:46.859Z,13.07
2024-04-15T16:31:49.389Z,13.00
2024-04-15T16:34:51.975Z,12.93
2024-04-15T16:37:54.570Z,12.89
2024-04-15T16:40:57.151Z,12.77
2024-04-15T16:43:59.666Z,12.91
2024-04-15T16:47:02.252Z,12.90
2024-04-15T16:50:05.088Z,12.80
2024-04-15T16:53:07.563Z,12.93
2024-04-15T16:56:10.264Z,12.86
2024-04-15T16:59:12.953Z,12.91
2024-04-15T17:02:15.606Z,12.91
2024-04-15T17:05:18.692Z,12.89
2024-04-15T17:08:21.420Z,12.77
2024-04-15T17:11:24.203Z,12.81
2024-04-15T17:14:27.100Z,12.68
2024-04-15T17:17:29.883Z,12.76
2024-04-15T17:20:32.824Z,12.77
2024-04-15T17:23:35.489Z,12.77
2024-04-15T17:26:39.178Z,12.76
2024-04-15T17:29:42.244Z,12.76
2024-04-15T17:32:45.694Z,12.76
2024-04-15T17:35:49.241Z,12.77
2024-04-15T17:38:52.162Z,12.75
2024-04-15T17:41:55.225Z,12.76
2024-04-15T17:44:58.234Z,12.69
2024-04-15T17:48:01.344Z,12.66
2024-04-15T17:51:06.020Z,12.70
2024-04-15T17:54:13.695Z,12.69
2024-04-15T17:57:18.050Z,12.62
2024-04-15T18:00:21.352Z,12.68
2024-04-15T18:03:24.776Z,12.66
2024-04-15T18:06:27.899Z,12.90
2024-04-15T18:09:30.937Z,12.68
2024-04-15T18:12:34.011Z,12.52
2024-04-15T18:15:37.688Z,12.48
2024-04-15T18:18:42.611Z,12.45
2024-04-15T18:21:47.929Z,12.54
2024-04-15T18:24:51.189Z,12.49
2024-04-15T18:27:54.370Z,12.37
2024-04-15T18:30:57.240Z,12.46
2024-04-15T18:34:00.860Z,12.45
2024-04-15T18:37:04.018Z,12.44
2024-04-15T18:40:07.844Z,12.45
2024-04-15T18:43:11.123Z,12.35
2024-04-15T18:46:14.567Z,12.38
2024-04-15T18:49:17.403Z,12.35
2024-04-15T18:52:20.720Z,12.34
2024-04-15T18:55:24.157Z,12.32
2024-04-15T18:58:27.180Z,12.29
2024-04-15T19:01:30.416Z,12.29
2024-04-15T19:04:34.565Z,12.28
2024-04-15T19:07:41.976Z,12.34
2024-04-15T19:10:45.222Z,12.29
2024-04-15T19:13:48.710Z,12.28
2024-04-15T19:16:51.683Z,12.28
2024-04-15T19:19:55.302Z,12.31
2024-04-15T19:22:58.528Z,12.30
2024-04-15T19:26:01.532Z,12.26
2024-04-15T19:29:07.010Z,12.26
2024-04-15T19:32:10.884Z,12.21
2024-04-15T19:35:14.713Z,12.22
2024-04-15T19:38:17.495Z,12.18
2024-04-15T19:41:21.056Z,12.19
2024-04-15T19:44:24.963Z,12.13
2024-04-15T19:47:31.589Z,12.18
2024-04-15T19:50:34.278Z,12.16
2024-04-15T19:53:37.895Z,12.14
2024-04-15T19:56:43.380Z,12.12
2024-04-15T19:59:46.386Z,12.12
2024-04-15T20:02:49.496Z,12.00
2024-04-15T20:05:52.407Z,12.08
2024-04-15T20:08:55.049Z,12.06
2024-04-15T20:11:57.573Z,12.04
2024-04-15T20:15:01.397Z,11.93
2024-04-15T20:18:23.577Z,12.05
2024-04-15T20:21:26.225Z,12.03
2024-04-15T20:24:28.651Z,12.03
2024-04-15T20:27:31.209Z,12.05
2024-04-15T20:30:33.992Z,12.06
2024-04-15T20:33:36.512Z,12.07
2024-04-15T20:36:39.255Z,12.04
2024-04-15T20:39:41.897Z,12.06
2024-04-15T20:42:44.412Z,12.03
2024-04-15T20:45:49.834Z,11.93
2024-04-15T20:48:52.427Z,12.02
2024-04-15T20:51:55.166Z,12.02
2024-04-15T20:54:57.756Z,11.99
2024-04-15T20:58:00.374Z,11.97
2024-04-15T21:01:04.836Z,11.97
2024-04-15T21:04:14.529Z,12.02
2024-04-15T21:07:21.479Z,11.95
2024-04-15T21:10:24.376Z,11.96
2024-04-15T21:13:27.076Z,11.97
2024-04-15T21:16:29.761Z,11.94
2024-04-15T21:19:32.320Z,11.93
2024-04-15T21:22:36.871Z,11.93
2024-04-15T21:25:40.655Z,11.97
2024-04-15T21:28:43.236Z,12.00
2024-04-15T21:31:45.715Z,11.84
2024-04-15T21:34:48.305Z,11.98
2024-04-15T21:37:51.090Z,11.94
2024-04-15T21:40:53.536Z,11.95
2024-04-15T21:43:56.148Z,11.97
2024-04-15T21:46:58.849Z,11.99
2024-04-15T21:50:01.425Z,12.00
2024-04-15T21:53:04.015Z,12.00
2024-04-15T21:56:06.870Z,11.98
2024-04-15T21:59:09.432Z,11.99
2024-04-15T22:02:11.934Z,11.98
2024-04-15T22:05:14.614Z,11.85
2024-04-15T22:08:17.172Z,11.93
2024-04-15T22:11:19.710Z,11.91
2024-04-15T22:14:22.216Z,11.94
2024-04-15T22:17:34.480Z,12.00
2024-04-15T22:20:37.194Z,11.97
2024-04-15T22:23:39.702Z,11.84
2024-04-15T22:26:42.218Z,11.97
2024-04-15T22:29:45.090Z,11.97
2024-04-15T22:32:47.811Z,11.94
2024-04-15T22:35:50.976Z,11.92
2024-04-15T22:38:53.509Z,11.90
2024-04-15T22:41:57.569Z,11.90
2024-04-15T22:45:00.500Z,11.93
2024-04-15T22:48:03.044Z,11.92
2024-04-15T22:51:05.919Z,11.87
2024-04-15T22:54:09.609Z,11.82
2024-04-15T22:57:12.098Z,11.82
2024-04-15T23:00:14.972Z,11.78
2024-04-15T23:03:18.002Z,11.75
2024-04-15T23:06:20.852Z,11.73
2024-04-15T23:09:24.118Z,11.68
2024-04-15T23:12:26.649Z,11.66
2024-04-15T23:15:29.282Z,11.64
2024-04-15T23:18:34.152Z,11.61
2024-04-15T23:21:36.726Z,11.58
2024-04-15T23:24:41.922Z,11.54
2024-04-15T23:27:44.369Z,11.50
2024-04-15T23:30:57.452Z,11.51
2024-04-15T23:34:00.938Z,11.51
2024-04-15T23:37:03.421Z,11.48
2024-04-15T23:40:06.468Z,11.45
2024-04-15T23:43:09.040Z,11.38
2024-04-15T23:46:30.000Z,11.49
2024-04-15T23:49:51.066Z,11.49
2024-04-15T23:53:12.232Z,11.49
2024-04-15T23:56:33.271Z,11.48
2024-04-15T23:59:35.741Z,11.35
